Time;durP1;ratioP1;P1;durP2;ratioP2;P2;SDS_P1;SDS_P2;PMS_P1;PMS_P2;Temp;Humidity;BMP_temperature;BMP_pressure;BME280_temperature;BME280_humidity;BME280_pressure;Samples;Min_cycle;Max_cycle;Signal;HPM_P1;HPM_P2
2021/05/22 00:02:19;;;;;;;5.88;3.28;;;;;;;9.47;87.47;99465.41;5023007;28;20034;-83
2021/05/22 00:04:45;;;;;;;5.70;3.03;;;;;;;9.21;87.24;99429.38;5019905;28;20042;-85
2021/05/22 00:07:10;;;;;;;6.93;3.10;;;;;;;9.45;86.94;99474.13;5018116;28;20141;-84
2021/05/22 00:09:36;;;;;;;8.63;3.10;;;;;;;9.55;87.16;99490.09;5017671;28;20068;-83
2021/05/22 00:12:02;;;;;;;7.82;3.58;;;;;;;9.33;86.94;99460.94;5017444;28;20121;-83
2021/05/22 00:14:27;;;;;;;6.93;3.38;;;;;;;9.02;87.29;99419.13;5026499;28;20034;-84
2021/05/22 00:17:09;;;;;;;7.57;3.40;;;;;;;9.26;87.33;99458.66;5017694;28;20121;-83
2021/05/22 00:19:35;;;;;;;8.15;3.42;;;;;;;9.36;87.44;99479.84;5019179;28;20061;-84
2021/05/22 00:22:16;;;;;;;5.65;3.60;;;;;;;9.41;87.44;99482.19;5022693;28;20049;-83
2021/05/22 00:24:42;;;;;;;6.38;2.83;;;;;;;9.45;86.35;99502.78;5024520;28;20034;-83
2021/05/22 00:27:10;;;;;;;7.88;3.35;;;;;;;9.50;87.27;99512.13;5008496;28;20058;-83
2021/05/22 00:29:36;;;;;;;5.45;2.63;;;;;;;9.50;86.58;99515.56;5028588;28;20038;-83
2021/05/22 00:32:02;;;;;;;7.70;2.72;;;;;;;9.24;86.61;99470.91;5041983;28;20038;-83
2021/05/22 00:34:28;;;;;;;4.90;2.83;;;;;;;9.11;86.46;99443.81;5007586;28;20088;-84
2021/05/22 00:36:53;;;;;;;6.85;2.78;;;;;;;9.51;86.71;99519.84;5018762;28;20044;-84
2021/05/22 00:39:18;;;;;;;7.65;2.75;;;;;;;9.46;86.18;99508.84;5023176;28;20041;-83
2021/05/22 00:41:44;;;;;;;7.03;2.42;;;;;;;9.43;86.29;99503.78;5039081;28;20038;-82
2021/05/22 00:44:09;;;;;;;5.15;3.17;;;;;;;9.57;87.06;99523.88;5038252;28;20046;-83
2021/05/22 00:46:35;;;;;;;5.65;2.60;;;;;;;9.57;86.13;99529.94;5033735;28;20063;-83
2021/05/22 00:49:03;;;;;;;5.30;2.53;;;;;;;9.48;86.04;99514.78;5024039;28;20394;-84
2021/05/22 00:51:29;;;;;;;5.80;2.55;;;;;;;9.49;86.42;99523.47;5019180;28;20594;-83
2021/05/22 00:53:54;;;;;;;5.07;2.47;;;;;;;9.50;86.48;99527.75;5019491;28;20070;-83
2021/05/22 00:56:20;;;;;;;7.68;2.50;;;;;;;9.52;86.41;99523.28;5011063;28;20057;-83
2021/05/22 00:58:46;;;;;;;6.85;2.60;;;;;;;8.91;86.04;99435.28;4997547;28;20034;-83
2021/05/22 01:01:12;;;;;;;7.88;2.90;;;;;;;9.48;86.34;99540.00;5012479;28;20041;-84
2021/05/22 01:03:45;;;;;;;5.25;2.50;;;;;;;9.46;86.57;99542.72;5012934;28;20034;-84
2021/05/22 01:06:14;;;;;;;5.45;2.78;;;;;;;9.44;86.09;99536.72;4998923;28;20034;-83
2021/05/22 01:08:44;;;;;;;5.05;2.30;;;;;;;9.18;86.09;99504.22;5009336;28;20030;-82
2021/05/22 01:11:14;;;;;;;5.35;2.10;;;;;;;9.40;85.78;99543.03;5021006;28;20441;-83
2021/05/22 01:13:42;;;;;;;6.55;3.13;;;;;;;9.42;86.48;99541.16;5019222;28;20088;-83
2021/05/22 01:16:11;;;;;;;5.18;2.55;;;;;;;9.42;85.99;99544.63;5015767;28;20049;-83
2021/05/22 01:18:39;;;;;;;7.15;2.53;;;;;;;9.29;86.13;99517.53;5018391;28;20010;-83
2021/05/22 01:21:05;;;;;;;3.97;2.72;;;;;;;9.47;85.96;99554.78;5028206;28;20041;-80
2021/05/22 01:23:39;;;;;;;5.18;2.30;;;;;;;9.31;85.22;99535.69;5030403;28;20084;-83
2021/05/22 01:26:06;;;;;;;9.40;2.70;;;;;;;9.36;85.77;99555.38;5019011;28;20450;-83
2021/05/22 01:28:34;;;;;;;5.72;2.45;;;;;;;9.37;86.18;99559.63;5014660;28;20117;-83
2021/05/22 01:31:01;;;;;;;4.25;2.30;;;;;;;9.36;85.99;99565.78;5014253;28;20066;-83
2021/05/22 01:33:27;;;;;;;5.97;2.47;;;;;;;9.32;85.65;99564.25;5018789;28;20078;-83
2021/05/22 01:35:52;;;;;;;4.78;2.20;;;;;;;9.17;85.39;99560.66;5014212;28;20040;-83
2021/05/22 01:38:18;;;;;;;4.80;2.22;;;;;;;9.01;85.79;99528.50;5011924;28;20029;-83
2021/05/22 01:40:44;;;;;;;3.10;2.03;;;;;;;9.26;85.58;99565.41;5013296;28;20421;-83
2021/05/22 01:43:10;;;;;;;6.30;2.67;;;;;;;9.19;85.36;99557.97;5022609;28;20041;-82
2021/05/22 01:45:42;;;;;;;4.82;2.20;;;;;;;9.28;85.40;99580.94;5014770;28;20034;-83
2021/05/22 01:48:11;;;;;;;4.10;2.05;;;;;;;9.16;85.29;99563.34;5019036;28;20053;-83
2021/05/22 01:50:43;;;;;;;3.60;1.70;;;;;;;9.15;84.86;99575.50;5013229;28;20034;-82
2021/05/22 01:53:10;;;;;;;4.68;2.10;;;;;;;9.16;85.12;99577.19;5010267;28;20517;-83
2021/05/22 01:55:38;;;;;;;3.88;2.30;;;;;;;9.28;84.92;99591.38;5013578;28;20037;-83
2021/05/22 01:58:05;;;;;;;5.50;2.03;;;;;;;9.23;85.01;99589.00;5013091;28;20314;-83
2021/05/22 02:00:30;;;;;;;4.38;1.90;;;;;;;8.92;85.02;99535.88;5012157;28;20037;-82
2021/05/22 02:03:13;;;;;;;5.40;2.15;;;;;;;9.28;84.93;99602.63;5013839;28;20398;-84
2021/05/22 02:05:39;;;;;;;5.40;2.20;;;;;;;9.13;85.27;99593.81;5013044;28;20030;-83
2021/05/22 02:08:13;;;;;;;4.38;1.90;;;;;;;9.10;85.16;99586.16;5014268;28;20516;-85
2021/05/22 02:10:40;;;;;;;5.63;2.20;;;;;;;9.20;84.76;99607.34;5022877;28;20061;-80
2021/05/22 02:13:07;;;;;;;3.88;1.98;;;;;;;9.16;84.58;99598.03;5030808;28;20088;-80
2021/05/22 02:15:35;;;;;;;6.82;2.42;;;;;;;9.00;84.93;99571.91;5031172;28;20026;-79
2021/05/22 02:18:04;;;;;;;5.85;2.80;;;;;;;9.15;84.43;99598.94;5016453;28;20113;-84
2021/05/22 02:20:32;;;;;;;3.45;1.90;;;;;;;9.18;83.96;99609.22;5009814;28;20034;-82
2021/05/22 02:23:01;;;;;;;4.75;1.67;;;;;;;9.21;84.37;99619.47;5011071;28;20084;-83
2021/05/22 02:25:27;;;;;;;5.05;2.08;;;;;;;9.21;84.26;99622.06;5012978;28;20096;-83
2021/05/22 02:27:54;;;;;;;3.15;2.22;;;;;;;9.29;84.16;99624.31;5014853;28;20038;-81
2021/05/22 02:30:20;;;;;;;6.32;2.30;;;;;;;9.16;84.00;99611.03;5023382;28;20105;-83
2021/05/22 02:32:49;;;;;;;7.43;2.30;;;;;;;9.36;84.17;99636.09;5032168;28;20030;-83
2021/05/22 02:35:18;;;;;;;5.10;1.98;;;;;;;9.27;84.23;99623.53;5019814;28;20479;-83
2021/05/22 02:37:47;;;;;;;4.90;2.30;;;;;;;9.31;84.26;99637.25;5014114;28;20046;-83
2021/05/22 02:40:16;;;;;;;4.65;1.95;;;;;;;9.33;84.16;99638.84;5009976;28;20130;-83
2021/05/22 02:42:45;;;;;;;3.92;1.83;;;;;;;9.24;83.97;99624.53;5013537;28;20076;-83
2021/05/22 02:45:12;;;;;;;2.97;1.75;;;;;;;9.13;83.63;99613.81;5012135;28;20057;-82
2021/05/22 02:47:41;;;;;;;6.75;1.90;;;;;;;9.21;83.58;99635.09;5012435;28;20471;-83
2021/05/22 02:50:09;;;;;;;6.60;2.00;;;;;;;9.12;83.71;99631.19;5009819;28;20057;-83
2021/05/22 02:52:37;;;;;;;6.63;2.10;;;;;;;9.23;83.57;99642.84;5013079;28;20026;-83
2021/05/22 02:55:04;;;;;;;6.47;1.95;;;;;;;9.23;83.46;99646.28;5008439;28;20069;-82
2021/05/22 02:57:32;;;;;;;4.25;2.17;;;;;;;9.07;82.99;99637.53;5010583;28;20475;-84
2021/05/22 02:59:58;;;;;;;3.97;2.00;;;;;;;8.63;82.04;99568.53;5011733;28;20091;-83
2021/05/22 03:02:24;;;;;;;4.22;2.00;;;;;;;9.04;82.22;99642.91;5011298;28;20526;-83
2021/05/22 03:04:49;;;;;;;6.40;1.90;;;;;;;9.16;82.27;99657.91;5013310;28;20037;-82
2021/05/22 03:07:15;;;;;;;3.25;1.55;;;;;;;9.21;81.74;99668.94;5012745;28;20030;-83
2021/05/22 03:09:41;;;;;;;3.95;1.50;;;;;;;8.94;80.52;99626.88;5012459;28;20038;-83
2021/05/22 03:12:08;;;;;;;3.85;1.80;;;;;;;9.05;80.42;99649.78;5011546;28;20034;-82
2021/05/22 03:14:33;;;;;;;4.15;1.70;;;;;;;9.20;80.36;99676.81;5011935;28;20045;-82
2021/05/22 03:16:59;;;;;;;8.85;2.08;;;;;;;9.22;79.98;99675.00;5013604;28;20038;-83
2021/05/22 03:19:24;;;;;;;2.88;1.67;;;;;;;9.20;80.51;99674.22;5010817;28;20022;-83
2021/05/22 03:21:50;;;;;;;5.20;1.98;;;;;;;9.29;80.43;99686.81;5010940;28;20474;-83
2021/05/22 03:24:15;;;;;;;3.25;1.58;;;;;;;9.24;80.85;99671.41;5009257;28;20180;-84
2021/05/22 03:26:41;;;;;;;2.60;1.50;;;;;;;9.27;81.35;99679.03;4995622;28;20505;-84
2021/05/22 03:29:07;;;;;;;4.30;1.90;;;;;;;9.24;81.77;99674.00;5013036;28;20459;-84
2021/05/22 03:31:32;;;;;;;3.88;1.75;;;;;;;9.36;81.92;99689.94;5013451;28;20088;-84
2021/05/22 03:33:58;;;;;;;3.80;1.90;;;;;;;9.18;82.25;99670.84;5005849;28;20394;-84
2021/05/22 03:36:23;;;;;;;4.35;2.00;;;;;;;9.21;82.29;99678.53;5007924;28;20034;-83
2021/05/22 03:38:49;;;;;;;4.03;1.95;;;;;;;9.36;80.99;99702.97;5009918;28;20402;-82
2021/05/22 03:41:14;;;;;;;3.40;1.92;;;;;;;9.07;81.46;99663.56;5012647;28;20547;-83
2021/05/22 03:43:40;;;;;;;3.35;1.85;;;;;;;9.08;80.15;99675.66;5011230;28;20038;-84
2021/05/22 03:46:05;;;;;;;2.30;1.50;;;;;;;9.28;80.41;99712.00;5019896;28;20497;-84
2021/05/22 03:48:31;;;;;;;3.65;1.85;;;;;;;9.29;80.64;99708.47;5028365;28;20026;-83
2021/05/22 03:50:56;;;;;;;3.83;1.73;;;;;;;9.33;80.54;99714.38;5031000;28;20034;-82
2021/05/22 03:53:22;;;;;;;4.68;1.90;;;;;;;9.35;80.78;99715.16;5028377;28;20056;-83
2021/05/22 03:55:49;;;;;;;4.82;2.10;;;;;;;9.37;81.26;99723.72;5032261;28;20110;-83
2021/05/22 03:58:15;;;;;;;4.03;1.92;;;;;;;9.22;81.36;99695.84;5034122;28;20033;-82
2021/05/22 04:00:41;;;;;;;3.42;2.10;;;;;;;9.38;81.81;99728.00;5034074;28;20061;-83
2021/05/22 04:03:06;;;;;;;3.25;1.77;;;;;;;9.28;81.82;99716.38;5029817;28;20102;-85
2021/05/22 04:05:34;;;;;;;6.63;2.33;;;;;;;9.19;80.48;99719.41;5033283;28;20036;-83
2021/05/22 04:08:03;;;;;;;3.05;1.60;;;;;;;9.23;79.86;99734.81;5036867;28;20036;-84
2021/05/22 04:10:28;;;;;;;2.38;1.38;;;;;;;9.24;79.67;99728.69;5030404;28;20030;-83
2021/05/22 04:12:54;;;;;;;5.88;1.80;;;;;;;9.22;78.81;99730.53;5022939;28;20064;-83
2021/05/22 04:15:19;;;;;;;3.67;1.35;;;;;;;9.00;79.71;99702.06;5021068;28;20099;-84
2021/05/22 04:17:45;;;;;;;2.95;1.40;;;;;;;9.17;79.80;99737.72;5020967;28;20037;-83
2021/05/22 04:20:11;;;;;;;2.30;1.42;;;;;;;9.10;79.24;99726.72;5039465;28;20049;-81
2021/05/22 04:22:36;;;;;;;3.55;1.40;;;;;;;9.12;79.16;99739.69;5034142;28;20042;-84
2021/05/22 04:25:03;;;;;;;2.92;1.45;;;;;;;9.13;79.32;99736.19;5023952;28;20030;-83
2021/05/22 04:27:29;;;;;;;4.05;1.88;;;;;;;9.16;79.43;99733.41;5039035;28;20037;-81
2021/05/22 04:29:55;;;;;;;3.67;1.67;;;;;;;9.16;79.31;99746.44;5039655;28;20026;-81
2021/05/22 04:32:20;;;;;;;3.05;1.50;;;;;;;9.08;78.73;99749.41;5027813;28;20038;-84
2021/05/22 04:34:46;;;;;;;2.78;1.40;;;;;;;8.89;78.86;99725.16;5016584;28;20472;-84
2021/05/22 04:37:11;;;;;;;2.60;1.23;;;;;;;8.98;78.28;99729.91;5017902;28;20501;-83
2021/05/22 04:39:37;;;;;;;2.15;1.17;;;;;;;9.08;78.00;99754.63;5010974;28;20040;-84
2021/05/22 04:42:04;;;;;;;3.60;1.20;;;;;;;8.97;78.44;99728.22;5016679;28;20042;-83
2021/05/22 04:44:30;;;;;;;2.25;1.40;;;;;;;9.16;78.52;99756.03;5016272;28;20034;-85
2021/05/22 04:46:55;;;;;;;3.03;1.40;;;;;;;9.08;78.50;99738.13;5015231;28;20076;-85
2021/05/22 04:49:21;;;;;;;4.28;1.60;;;;;;;9.13;78.86;99746.59;5015787;28;20486;-84
2021/05/22 04:51:46;;;;;;;2.88;1.38;;;;;;;9.25;78.60;99764.25;5015641;28;20446;-84
2021/05/22 04:54:12;;;;;;;3.25;1.35;;;;;;;9.29;79.08;99776.19;5016224;28;20033;-83
2021/05/22 04:56:38;;;;;;;2.35;1.30;;;;;;;9.27;78.85;99766.75;5015951;28;20134;-84
2021/05/22 04:59:04;;;;;;;1.35;1.15;;;;;;;9.27;78.12;99751.13;5015278;28;20049;-85
2021/05/22 05:01:30;;;;;;;2.25;1.42;;;;;;;9.33;78.88;99756.03;5016946;28;20495;-84
2021/05/22 05:03:56;;;;;;;2.30;1.40;;;;;;;9.18;78.40;99751.56;5016532;28;20177;-83
2021/05/22 05:06:21;;;;;;;2.58;1.40;;;;;;;9.37;78.82;99786.22;5016597;28;20176;-83
2021/05/22 05:08:47;;;;;;;5.20;1.60;;;;;;;9.39;78.36;99796.59;5019318;28;20462;-82
2021/05/22 05:11:12;;;;;;;3.30;1.38;;;;;;;9.29;78.61;99781.38;5029250;28;20049;-84
2021/05/22 05:13:38;;;;;;;3.17;1.55;;;;;;;9.48;78.44;99805.72;5018623;28;20072;-85
2021/05/22 05:16:04;;;;;;;2.25;1.50;;;;;;;9.42;78.72;99815.53;5021850;28;20064;-83
2021/05/22 05:18:30;;;;;;;2.30;1.40;;;;;;;9.33;78.61;99796.88;5034693;28;20486;-83
2021/05/22 05:20:55;;;;;;;3.58;1.77;;;;;;;9.20;78.00;99773.16;5035348;28;20030;-83
2021/05/22 05:23:22;;;;;;;2.00;1.35;;;;;;;9.41;77.73;99812.97;5037672;28;20086;-83
2021/05/22 05:25:47;;;;;;;3.35;1.70;;;;;;;9.15;78.30;99783.81;5036083;28;20042;-83
2021/05/22 05:28:13;;;;;;;3.00;1.50;;;;;;;9.29;77.87;99802.22;5036626;28;20049;-83
2021/05/22 05:30:38;;;;;;;4.03;1.88;;;;;;;9.36;78.17;99813.22;5037112;28;20076;-81
2021/05/22 05:33:04;;;;;;;2.38;1.30;;;;;;;9.21;77.29;99803.50;5038036;28;20089;-80
2021/05/22 05:35:30;;;;;;;3.17;1.45;;;;;;;9.37;77.04;99827.06;5036879;28;20111;-80
2021/05/22 05:37:55;;;;;;;2.30;1.27;;;;;;;9.37;77.09;99832.28;5018492;28;20049;-84
2021/05/22 05:40:22;;;;;;;3.78;1.27;;;;;;;9.32;76.89;99824.69;5018739;28;20053;-84
2021/05/22 05:42:49;;;;;;;3.70;1.42;;;;;;;9.07;76.62;99798.94;5013682;28;20043;-85
2021/05/22 05:45:15;;;;;;;3.42;1.33;;;;;;;9.45;76.74;99845.78;5029279;28;20114;-84
2021/05/22 05:47:40;;;;;;;1.90;1.13;;;;;;;9.46;76.73;99844.88;5035862;28;20041;-85
2021/05/22 05:50:07;;;;;;;3.03;1.30;;;;;;;9.42;77.30;99841.56;5035542;28;20050;-81
2021/05/22 05:52:32;;;;;;;4.60;2.05;;;;;;;9.55;77.13;99835.78;5027826;28;20033;-85
2021/05/22 05:54:58;;;;;;;3.38;1.30;;;;;;;9.58;76.75;99843.44;5024146;28;20017;-84
2021/05/22 05:57:23;;;;;;;2.95;1.48;;;;;;;9.71;75.76;99851.50;5034850;28;20060;-83
2021/05/22 05:59:49;;;;;;;3.42;1.25;;;;;;;9.84;76.73;99856.97;5032044;28;20117;-82
2021/05/22 06:02:14;;;;;;;2.30;1.10;;;;;;;10.01;75.01;99863.97;5015186;28;20058;-85
2021/05/22 06:04:40;;;;;;;1.73;1.00;;;;;;;10.12;74.50;99859.06;5028596;28;20022;-85
2021/05/22 06:07:06;;;;;;;1.55;1.00;;;;;;;10.16;73.93;99868.44;5036633;28;20053;-81
2021/05/22 06:09:31;;;;;;;2.55;1.20;;;;;;;10.26;74.18;99874.03;5024311;28;20041;-82
2021/05/22 06:11:57;;;;;;;2.78;1.42;;;;;;;10.31;74.22;99877.25;5036813;28;20021;-81
2021/05/22 06:14:35;;;;;;;4.18;1.23;;;;;;;10.13;74.09;99854.69;5032977;28;20061;-84
2021/05/22 06:17:00;;;;;;;2.03;1.02;;;;;;;10.37;72.70;99889.16;5028852;28;20038;-81
2021/05/22 06:19:26;;;;;;;2.92;1.00;;;;;;;10.40;72.79;99889.03;5033617;28;20029;-82
2021/05/22 06:21:52;;;;;;;3.83;1.20;;;;;;;10.60;73.33;99893.22;5022855;28;20049;-80
2021/05/22 06:24:17;;;;;;;3.22;1.02;;;;;;;10.65;71.14;99887.78;5032578;28;20045;-81
2021/05/22 06:26:43;;;;;;;2.22;1.10;;;;;;;10.66;71.47;99889.47;5035035;28;20057;-82
2021/05/22 06:29:09;;;;;;;3.15;1.00;;;;;;;10.57;71.17;99889.00;5032837;28;20026;-81
2021/05/22 06:31:34;;;;;;;3.10;0.88;;;;;;;10.77;71.09;99876.69;5034176;28;20058;-81
2021/05/22 06:34:00;;;;;;;3.47;1.00;;;;;;;11.06;69.39;99900.44;5034185;28;20018;-84
2021/05/22 06:36:30;;;;;;;3.72;1.05;;;;;;;11.07;68.91;99917.81;5026790;28;20034;-82
2021/05/22 06:38:55;;;;;;;1.98;0.80;;;;;;;11.30;69.18;99916.56;5028467;28;20090;-79
2021/05/22 06:41:21;;;;;;;1.48;0.65;;;;;;;11.32;67.69;99899.03;5029079;28;20109;-82
2021/05/22 06:43:48;;;;;;;1.65;0.70;;;;;;;11.61;66.97;99919.25;5038526;28;20053;-82
2021/05/22 06:48:40;;;;;;;1.30;0.73;;;;;;;11.45;66.10;99933.19;5037125;28;20081;-81
2021/05/22 06:51:06;;;;;;;2.20;0.80;;;;;;;11.08;67.24;99919.47;5017188;28;20049;-80
2021/05/22 06:53:31;;;;;;;2.55;1.20;;;;;;;11.04;67.70;99918.78;5028628;28;20085;-81
2021/05/22 06:55:57;;;;;;;4.03;0.85;;;;;;;10.86;67.52;99914.53;5035874;28;20110;-82
2021/05/22 06:58:23;;;;;;;2.03;0.90;;;;;;;10.88;66.78;99908.28;5035400;28;20037;-79
2021/05/22 07:00:49;;;;;;;2.65;1.10;;;;;;;11.10;67.21;99946.34;5036205;28;20057;-79
2021/05/22 07:03:14;;;;;;;2.20;1.00;;;;;;;11.26;67.09;99949.00;5037150;28;20050;-80
2021/05/22 07:05:40;;;;;;;2.05;0.70;;;;;;;11.26;65.99;99906.38;5032672;28;20027;-81
2021/05/22 07:08:07;;;;;;;2.33;0.70;;;;;;;11.40;66.19;99943.06;5018593;28;20049;-84
2021/05/22 07:10:32;;;;;;;3.20;0.75;;;;;;;11.38;65.66;99945.72;5012804;28;20045;-82
2021/05/22 07:12:58;;;;;;;1.67;0.65;;;;;;;11.27;65.76;99950.69;5034426;28;20074;-80
2021/05/22 07:15:23;;;;;;;2.42;0.70;;;;;;;11.23;66.48;99957.00;5022752;28;20045;-80
2021/05/22 07:17:49;;;;;;;3.17;0.80;;;;;;;11.14;65.24;99965.31;5016513;28;20098;-82
2021/05/22 07:20:15;;;;;;;3.20;1.20;;;;;;;11.13;65.23;99959.25;5027889;28;20072;-82
2021/05/22 07:22:41;;;;;;;4.88;2.20;;;;;;;11.23;65.79;99938.72;5041878;28;20026;-81
2021/05/22 07:25:07;;;;;;;4.38;0.90;;;;;;;11.25;65.39;99957.75;5038901;28;20044;-83
2021/05/22 07:27:36;;;;;;;4.90;3.22;;;;;;;11.29;65.89;99958.44;5038084;28;20037;-84
2021/05/22 07:30:09;;;;;;;1.95;0.60;;;;;;;10.79;64.66;99929.69;5036045;28;20600;-82
2021/05/22 07:32:39;;;;;;;3.65;1.10;;;;;;;11.15;66.63;99975.69;5024454;28;20059;-82
2021/05/22 07:35:06;;;;;;;4.75;1.15;;;;;;;11.38;65.84;99989.31;5035992;28;20129;-80
2021/05/22 07:37:33;;;;;;;1.75;0.65;;;;;;;11.78;64.51;99995.00;5040230;28;20030;-81
2021/05/22 07:39:59;;;;;;;1.63;0.60;;;;;;;12.12;63.52;100010.63;5036950;28;20031;-81
2021/05/22 07:42:25;;;;;;;3.35;0.80;;;;;;;12.37;60.80;99983.94;5041430;28;20069;-84
2021/05/22 07:45:00;;;;;;;2.03;0.57;;;;;;;12.29;61.21;99958.22;5020847;28;20018;-84
2021/05/22 07:47:26;;;;;;;2.35;0.60;;;;;;;12.35;59.59;99993.63;5026435;28;20050;-82
2021/05/22 07:49:52;;;;;;;0.60;0.40;;;;;;;12.31;59.47;100010.47;5039377;28;20042;-80
2021/05/22 07:52:19;;;;;;;2.30;0.63;;;;;;;12.22;60.36;99988.28;5035723;28;20113;-85
2021/05/22 07:54:47;;;;;;;2.50;0.88;;;;;;;12.32;61.16;100025.25;5033658;28;20033;-84
2021/05/22 07:57:14;;;;;;;2.75;0.80;;;;;;;12.31;59.92;100021.75;5046441;28;20056;-85
2021/05/22 07:59:39;;;;;;;2.75;0.73;;;;;;;12.21;61.03;100015.38;5024890;28;20045;-85
2021/05/22 08:02:07;;;;;;;2.33;1.08;;;;;;;11.90;62.50;100018.78;5023297;28;20033;-84
2021/05/22 08:04:33;;;;;;;3.42;0.80;;;;;;;12.12;62.95;100013.25;5036351;28;20093;-84
2021/05/22 08:06:59;;;;;;;3.15;0.60;;;;;;;12.21;61.13;99998.84;5035908;28;20037;-82
2021/05/22 08:09:24;;;;;;;1.80;0.60;;;;;;;12.47;59.54;100007.81;5035396;28;20049;-85
2021/05/22 08:11:50;;;;;;;3.20;1.00;;;;;;;12.64;60.02;100028.63;5019185;28;20471;-83
2021/05/22 08:14:16;;;;;;;3.85;0.80;;;;;;;12.87;59.20;100036.09;5019761;28;20041;-83
2021/05/22 08:16:42;;;;;;;1.23;0.60;;;;;;;12.64;58.84;99981.50;5010010;28;20041;-85
2021/05/22 08:19:08;;;;;;;2.75;0.88;;;;;;;13.13;58.28;100039.78;5015281;28;20080;-84
2021/05/22 08:21:34;;;;;;;2.47;0.60;;;;;;;13.53;57.52;100026.09;5021956;28;20033;-84
2021/05/22 08:23:59;;;;;;;1.25;0.50;;;;;;;13.22;56.88;100023.53;5023126;28;20034;-85
2021/05/22 08:26:26;;;;;;;2.20;0.60;;;;;;;13.00;58.62;99992.53;5014043;28;20057;-84
2021/05/22 08:28:53;;;;;;;2.47;0.80;;;;;;;13.32;57.87;100031.69;5009727;28;20038;-81
2021/05/22 08:31:20;;;;;;;1.48;0.68;;;;;;;13.17;59.61;100038.69;5017238;28;20038;-83
2021/05/22 08:33:46;;;;;;;1.88;0.63;;;;;;;13.48;57.42;100055.22;5018968;28;20065;-79
2021/05/22 08:36:12;;;;;;;2.03;0.70;;;;;;;13.26;57.65;100017.16;5021311;28;20168;-77
2021/05/22 08:38:38;;;;;;;2.65;0.77;;;;;;;13.12;59.60;100059.91;5016172;28;20549;-77
2021/05/22 08:41:05;;;;;;;2.45;1.02;;;;;;;13.17;59.17;100054.41;5016788;28;20046;-80
2021/05/22 08:43:31;;;;;;;1.60;0.80;;;;;;;13.40;59.58;100057.44;5027018;28;20037;-82
2021/05/22 08:45:57;;;;;;;4.93;0.98;;;;;;;13.41;59.16;100041.63;5019663;28;20030;-80
2021/05/22 08:48:23;;;;;;;2.35;0.80;;;;;;;13.88;58.00;100059.81;5023226;28;20033;-80
2021/05/22 08:50:48;;;;;;;3.22;0.80;;;;;;;13.77;57.63;100026.38;5017503;28;20069;-80
2021/05/22 08:53:14;;;;;;;1.63;0.80;;;;;;;13.77;57.28;100039.47;5017684;28;20542;-81
2021/05/22 08:55:40;;;;;;;1.20;0.57;;;;;;;13.69;55.73;100046.97;5018213;28;20057;-79
2021/05/22 08:58:05;;;;;;;1.75;0.85;;;;;;;13.29;57.41;100027.47;5018565;28;20081;-80
2021/05/22 09:00:38;;;;;;;2.88;0.70;;;;;;;13.48;55.42;100070.94;5017425;28;20034;-80
2021/05/22 09:03:04;;;;;;;0.70;0.40;;;;;;;13.20;54.06;100051.59;5017592;28;20049;-79
2021/05/22 09:05:31;;;;;;;1.92;0.68;;;;;;;13.24;55.37;100065.34;5036160;28;20041;-79
2021/05/22 09:08:04;;;;;;;2.05;0.50;;;;;;;12.97;53.82;100027.63;5031759;28;20034;-80
2021/05/22 09:10:34;;;;;;;2.37;0.60;;;;;;;13.17;52.80;100072.75;5020499;28;20537;-79
2021/05/22 09:13:04;;;;;;;2.22;0.55;;;;;;;13.43;51.94;100075.63;5016368;28;20088;-79
2021/05/22 09:15:33;;;;;;;2.10;0.60;;;;;;;13.50;51.57;100066.47;5016201;28;20417;-80
2021/05/22 09:18:03;;;;;;;1.85;0.50;;;;;;;13.93;50.87;100071.69;5016423;28;20421;-79
2021/05/22 09:20:34;;;;;;;1.38;0.50;;;;;;;13.76;50.33;100077.97;5016612;28;20064;-80
2021/05/22 09:23:04;;;;;;;1.45;0.60;;;;;;;14.22;49.56;100076.03;5016516;28;20402;-79
2021/05/22 09:25:32;;;;;;;1.13;0.43;;;;;;;14.54;50.17;100086.28;5016766;28;20065;-79
2021/05/22 09:27:58;;;;;;;0.95;0.47;;;;;;;14.53;49.69;100089.84;5014912;28;20093;-79
2021/05/22 09:30:26;;;;;;;2.25;0.82;;;;;;;14.71;50.20;100088.66;5016165;28;20534;-79
2021/05/22 09:32:53;;;;;;;0.95;0.50;;;;;;;14.21;49.03;100084.88;5015482;28;20053;-78
2021/05/22 09:35:20;;;;;;;1.40;0.50;;;;;;;14.02;49.51;100079.91;5016148;28;20478;-79
2021/05/22 09:37:48;;;;;;;1.60;0.65;;;;;;;14.32;50.30;100099.91;5017310;28;20042;-80
2021/05/22 09:40:18;;;;;;;1.40;0.65;;;;;;;14.44;49.86;100106.16;5016786;28;20033;-79
2021/05/22 09:42:46;;;;;;;1.85;0.50;;;;;;;14.19;49.91;100063.94;5018056;28;20102;-79
2021/05/22 09:45:36;;;;;;;0.98;0.50;;;;;;;14.13;50.52;100118.63;5017628;28;20041;-79
2021/05/22 09:48:24;;;;;;;2.53;0.50;;;;;;;13.56;51.63;100105.41;5016508;28;20042;-79
2021/05/22 09:50:54;;;;;;;0.60;0.45;;;;;;;14.06;51.13;100116.38;5016748;28;20521;-80
2021/05/22 09:53:27;;;;;;;1.95;0.70;;;;;;;14.40;50.81;100121.28;5016434;28;20069;-80
2021/05/22 09:56:14;;;;;;;1.65;0.60;;;;;;;14.50;51.18;100125.03;5015952;28;20037;-81
2021/05/22 09:58:53;;;;;;;1.63;0.80;;;;;;;14.59;51.88;100128.84;5016873;28;20034;-79
2021/05/22 10:01:30;;;;;;;2.05;0.70;;;;;;;14.73;51.47;100128.81;5022048;28;20049;-79
2021/05/22 10:04:14;;;;;;;3.00;0.60;;;;;;;15.15;50.85;100114.75;5023168;28;20080;-78
2021/05/22 10:06:41;;;;;;;3.42;0.90;;;;;;;15.55;50.46;100119.09;5016339;28;20034;-79
2021/05/22 10:09:14;;;;;;;1.92;0.60;;;;;;;15.24;48.92;100119.38;5015085;28;20038;-78
2021/05/22 10:12:08;;;;;;;0.85;0.40;;;;;;;14.88;49.82;100134.03;5015314;28;20049;-79
2021/05/22 10:14:39;;;;;;;3.00;0.70;;;;;;;15.34;48.40;100132.75;5014342;28;20064;-79
2021/05/22 10:17:07;;;;;;;2.67;0.85;;;;;;;15.94;46.99;100123.44;5014777;28;20379;-79
2021/05/22 10:19:34;;;;;;;1.67;0.50;;;;;;;16.09;45.16;100126.78;5014137;28;20041;-78
2021/05/22 10:22:01;;;;;;;3.20;0.50;;;;;;;15.55;47.44;100105.94;5014785;28;20470;-78
2021/05/22 10:24:27;;;;;;;1.65;0.60;;;;;;;15.63;47.40;100124.69;5014742;28;20437;-78
2021/05/22 10:26:54;;;;;;;1.90;0.77;;;;;;;15.37;47.77;100138.66;5014624;28;20057;-78
2021/05/22 10:29:22;;;;;;;2.63;0.60;;;;;;;15.16;48.44;100140.94;5014088;28;20438;-79
2021/05/22 10:31:48;;;;;;;1.55;0.57;;;;;;;14.87;48.36;100133.16;5014178;28;20096;-78
2021/05/22 10:34:20;;;;;;;1.05;0.50;;;;;;;15.12;48.03;100142.06;5014220;28;20069;-78
2021/05/22 10:36:54;;;;;;;1.25;0.52;;;;;;;15.15;47.04;100143.66;5013870;28;20486;-77
2021/05/22 10:39:39;;;;;;;1.35;0.75;;;;;;;15.31;47.47;100146.94;5013753;28;20045;-78
2021/05/22 10:42:29;;;;;;;1.38;0.55;;;;;;;15.82;47.52;100143.53;5013860;28;20062;-79
2021/05/22 10:44:57;;;;;;;2.80;0.73;;;;;;;15.94;47.35;100146.25;4986909;28;20433;-79
2021/05/22 10:47:27;;;;;;;2.20;0.70;;;;;;;16.00;47.36;100156.34;5014866;28;20038;-80
2021/05/22 10:49:58;;;;;;;2.55;0.80;;;;;;;16.08;47.10;100137.41;5014257;28;20121;-79
2021/05/22 10:52:26;;;;;;;0.60;0.43;;;;;;;15.75;48.47;100162.47;5014805;28;20034;-79
2021/05/22 10:55:12;;;;;;;2.35;0.60;;;;;;;15.69;50.36;100138.25;5013542;28;20037;-78
2021/05/22 10:57:46;;;;;;;1.15;0.50;;;;;;;15.80;51.76;100155.91;5014090;28;20030;-77
2021/05/22 11:00:21;;;;;;;1.30;0.50;;;;;;;15.28;53.43;100162.09;5017732;28;20037;-78
2021/05/22 11:02:53;;;;;;;1.98;0.70;;;;;;;15.15;52.96;100168.16;5017603;28;20030;-79
2021/05/22 11:05:26;;;;;;;2.03;0.60;;;;;;;15.17;51.34;100173.31;5007253;28;20031;-79
2021/05/22 11:08:04;;;;;;;1.23;0.60;;;;;;;15.30;51.25;100168.91;4997044;28;20450;-79
2021/05/22 11:10:38;;;;;;;0.77;0.40;;;;;;;15.45;46.91;100164.44;4998042;28;20479;-79
2021/05/22 11:13:05;;;;;;;1.65;0.70;;;;;;;15.86;47.48;100164.41;4998018;28;20030;-79
2021/05/22 11:15:57;;;;;;;1.20;0.45;;;;;;;15.83;48.13;100165.41;4997884;28;20482;-79
2021/05/22 11:18:23;;;;;;;1.15;0.50;;;;;;;15.42;48.69;100169.91;4999607;28;20038;-80
2021/05/22 11:21:20;;;;;;;2.35;0.80;;;;;;;14.86;49.58;100170.91;5016971;28;20038;-78
2021/05/22 11:24:01;;;;;;;1.33;0.60;;;;;;;14.58;50.93;100177.88;5019150;28;20030;-79
2021/05/22 11:27:01;;;;;;;2.30;0.90;;;;;;;14.46;49.87;100191.78;5039090;28;20022;-79
2021/05/22 11:29:50;;;;;;;1.00;0.43;;;;;;;14.67;48.46;100194.03;5002636;28;20054;-79
2021/05/22 11:32:45;;;;;;;1.60;0.88;;;;;;;14.52;50.51;100193.19;5010714;28;20494;-79
2021/05/22 11:38:13;;;;;;;0.67;0.40;;;;;;;14.87;48.74;100188.34;5017095;28;20046;-78
2021/05/22 11:40:39;;;;;;;3.08;0.98;;;;;;;15.02;48.12;100176.00;5015387;28;20141;-78
2021/05/22 11:43:23;;;;;;;1.55;0.73;;;;;;;15.36;48.72;100186.09;5027719;28;20464;-78
2021/05/22 11:45:49;;;;;;;1.03;0.60;;;;;;;15.83;46.91;100178.59;5017831;28;20076;-78